Latest Weather Observations for Townsville

IDQ60801

Issued at 2:05 pm EST Sunday 31 August 2014 (issued every 30 minutes, with the page automatically refreshed every 10 minutes)

About weather observations | Map of weather stations | Latest weather observations for QLD | Other Formats
Station Details ID: 032040 Name: TOWNSVILLE AERO Lat: -19.25 Lon: 146.77 Height: 4.34 m
Data from the previous 72 hours. | See also: Recent months at Townsville
Date/Time
EST
Temp
°C
App
Temp
°C
Dew
Point
Rel
Hum
%
Delta-T
°C
Wind Press
QNH
hPa
Press
MSL
hPa
Rain
since 9 am
mm
Dir
 
Spd
km/h
Gust
km/h
Spd
kts
Gust
kts
31/02:00pm 25.4 19.8 8.8 35 9.0 NE 28 33 15 18 1015.3 - 0.0
31/01:30pm 24.9 21.3 10.5 40 8.0 ENE 20 26 11 14 1015.8 - 0.0
31/01:00pm 24.6 20.4 9.6 38 8.2 NE 22 28 12 15 1016.1 - 0.0
31/12:30pm 24.4 20.9 11.0 43 7.5 NE 20 26 11 14 1016.6 - 0.0
31/12:00pm 24.0 20.9 11.6 45 7.0 NE 19 30 10 16 1017.1 1017.1 0.0
31/11:30am 24.0 21.0 12.0 47 6.8 NE 19 26 10 14 1017.5 - 0.0
31/11:00am 23.9 20.8 11.7 46 6.9 NNE 19 28 10 15 1017.9 - 0.0
31/10:30am 23.9 21.3 12.1 47 6.7 NE 17 22 9 12 1018.3 - 0.0
31/10:00am 23.8 23.1 13.1 51 6.2 E 9 19 5 10 1018.5 - 0.0
31/09:30am 22.9 22.8 13.2 54 5.6 SE 6 13 3 7 1018.7 - 0.0
31/09:00am 22.4 22.3 14.0 59 4.9 SSE 7 11 4 6 1018.8 1018.8 0.0
31/08:30am 20.8 21.0 14.3 66 3.8 S 6 9 3 5 1018.7 - 0.0
31/08:00am 19.3 20.9 14.8 75 2.6 CALM 0 0 0 0 1018.5 - 0.0
31/07:30am 17.1 18.5 14.5 85 1.5 CALM 0 0 0 0 1018.4 - 0.0
31/07:00am 14.9 16.0 13.6 92 0.7 CALM 0 0 0 0 1018.1 - 0.0
31/06:30am 14.2 15.2 13.3 94 0.5 CALM 0 0 0 0 1017.8 - 0.0
31/06:00am 14.1 15.1 13.2 94 0.5 W 0 0 0 0 1017.3 1017.3 0.0
31/05:30am 14.3 15.3 13.2 93 0.6 CALM 0 0 0 0 1017.0 - 0.0
31/05:00am 14.3 15.3 13.2 93 0.6 W 0 0 0 0 1016.7 - 0.0
31/04:30am 14.7 15.7 13.1 90 0.9 SSW 0 0 0 0 1016.8 - 0.0
31/04:00am 15.4 15.4 13.6 89 1.0 S 6 7 3 4 1016.7 - 0.0
31/03:30am 16.7 16.6 13.9 83 1.6 SW 7 9 4 5 1016.6 - 0.0
31/03:00am 17.2 16.7 13.7 80 2.0 S 9 11 5 6 1016.7 1016.7 0.0
31/02:30am 17.7 17.4 14.4 81 1.9 SSE 9 11 5 6 1016.9 - 0.0
31/02:00am 17.7 17.0 14.2 80 2.0 S 11 13 6 7 1017.1 - 0.0
31/01:30am 18.7 18.5 14.6 77 2.4 SSE 9 11 5 6 1017.4 - 0.0
31/01:00am 19.0 18.8 14.7 76 2.5 SSE 9 11 5 6 1017.6 - 0.0
31/12:30am 18.6 17.9 14.3 76 2.5 SSE 11 11 6 6 1017.9 - 0.0
31/12:00am 19.8 20.0 14.8 73 2.9 ESE 7 11 4 6 1018.0 1018.0 0.0
 
Date/Time
EST
Temp
°C
App
Temp
°C
Dew
Point
Rel
Hum
%
Delta-T
°C
Wind Press
QNH
hPa
Press
MSL
hPa
Rain
since 9 am
mm
Dir
 
Spd
km/h
Gust
km/h
Spd
kts
Gust
kts
30/11:30pm 19.7 20.0 14.5 72 3.0 ESE 6 7 3 4 1018.1 - 0.0
30/11:00pm 20.6 20.0 14.6 68 3.5 E 11 15 6 8 1018.3 - 0.0
30/10:30pm 21.0 20.0 14.5 66 3.8 ENE 13 19 7 10 1018.4 - 0.0
30/10:00pm 20.8 19.5 14.7 68 3.6 ENE 15 19 8 10 1018.5 - 0.0
30/09:30pm 20.2 18.2 14.0 67 3.6 NE 17 19 9 10 1018.5 - 0.0
30/09:00pm 20.4 18.0 12.8 61 4.3 ENE 17 24 9 13 1018.4 1018.4 0.0
30/08:30pm 20.7 18.2 13.4 63 4.2 NE 19 24 10 13 1018.4 - 0.0
30/08:00pm 20.8 18.0 12.7 59 4.6 ENE 19 26 10 14 1018.0 - 0.0
30/07:30pm 20.7 18.1 12.1 58 4.8 ENE 17 22 9 12 1017.5 - 0.0
30/07:00pm 20.8 17.7 11.6 55 5.1 ENE 19 24 10 13 1017.3 - 0.0
30/06:30pm 21.0 17.8 11.4 54 5.3 E 19 26 10 14 1016.9 - 0.0
30/06:00pm 21.5 18.3 11.2 52 5.7 ENE 19 26 10 14 1016.8 1016.8 0.0
30/05:30pm 22.3 17.8 10.0 45 6.7 E 24 32 13 17 1016.4 - 0.0
30/05:00pm 23.0 17.6 9.5 42 7.3 ENE 28 33 15 18 1016.1 - 0.0
30/04:30pm 23.8 18.0 9.4 40 7.8 ENE 30 37 16 20 1016.0 - 0.0
30/04:00pm 24.0 18.3 9.7 40 7.8 ENE 30 35 16 19 1015.9 - 0.0
30/03:30pm 24.5 19.2 9.7 39 8.1 ENE 28 35 15 19 1016.1 - 0.0
30/03:00pm 24.8 18.9 8.9 36 8.6 ENE 30 37 16 20 1016.1 1016.1 0.0
30/02:30pm 24.9 18.3 8.5 35 8.8 E 33 39 18 21 1016.3 - 0.0
30/02:00pm 24.9 18.3 7.7 33 9.1 ENE 32 39 17 21 1016.8 - 0.0
30/01:30pm 25.4 19.2 9.3 36 8.8 ENE 32 35 17 19 1017.1 - 0.0
30/01:00pm 25.1 19.4 8.3 34 9.0 ENE 28 35 15 19 1017.2 - 0.0
30/12:30pm 24.9 19.3 10.0 39 8.2 ENE 30 37 16 20 1017.7 - 0.0
30/12:00pm 25.0 19.3 8.4 34 8.9 NE 28 35 15 19 1018.2 1018.2 0.0
30/11:30am 24.6 20.5 11.3 43 7.5 ENE 24 32 13 17 1018.8 - 0.0
30/11:00am 23.9 21.0 11.0 44 7.2 E 17 26 9 14 1019.2 - 0.0
30/10:30am 24.0 20.8 11.4 45 7.1 E 19 28 10 15 1019.7 - 0.0
30/10:00am 23.3 21.0 10.6 44 7.0 SE 13 19 7 10 1019.8 - 0.0
30/09:30am 21.6 20.4 12.8 57 5.0 SE 11 20 6 11 1020.0 - 0.0
30/09:00am 20.8 21.5 13.3 62 4.3 W 2 9 1 5 1020.4 1020.4 0.0
30/08:30am 18.0 17.6 14.0 77 2.3 NW 9 11 5 6 1020.1 - 0.0
30/08:00am 17.4 17.2 13.7 79 2.1 NW 7 7 4 4 1020.0 - 0.0
30/07:30am 15.6 16.3 13.5 87 1.2 SSW 2 6 1 3 1019.5 - 0.0
30/07:00am 14.9 15.1 12.9 88 1.1 SE 4 9 2 5 1019.3 - 0.0
30/06:30am 15.2 14.4 13.0 87 1.2 SSE 9 11 5 6 1018.9 - 0.0
30/06:00am 14.2 14.9 12.2 88 1.1 CALM 0 7 0 4 1018.9 1018.9 0.0
30/05:30am 16.0 16.5 12.7 81 1.8 WSW 2 9 1 5 1018.8 - 0.0
30/05:00am 17.2 15.3 12.9 76 2.4 SSW 15 19 8 10 1018.7 - 0.0
30/04:30am 15.8 15.8 13.7 87 1.2 WSW 6 7 3 4 1018.5 - 0.0
30/04:00am 15.0 14.7 13.2 89 1.0 W 7 11 4 6 1018.4 - 0.0
30/03:30am 17.0 16.0 13.4 79 2.0 SSE 11 13 6 7 1018.2 - 0.0
30/03:00am 17.1 15.7 13.4 79 2.1 SSE 13 15 7 8 1018.0 1018.0 0.0
30/02:30am 17.4 16.0 13.5 78 2.2 SSE 13 17 7 9 1017.9 - 0.0
30/02:00am 17.6 16.2 13.3 76 2.4 SE 13 15 7 8 1018.2 - 0.0
30/01:30am 17.3 16.0 13.6 79 2.1 SE 13 15 7 8 1018.5 - 0.0
30/01:00am 18.7 17.4 13.6 72 2.9 SE 13 15 7 8 1018.6 - 0.0
30/12:30am 18.6 17.4 13.9 74 2.7 SE 13 15 7 8 1018.8 - 0.0
30/12:00am 19.0 17.7 13.8 72 3.0 SE 13 17 7 9 1018.9 1018.9 0.0
 
Date/Time
EST
Temp
°C
App
Temp
°C
Dew
Point
Rel
Hum
%
Delta-T
°C
Wind Press
QNH
hPa
Press
MSL
hPa
Rain
since 9 am
mm
Dir
 
Spd
km/h
Gust
km/h
Spd
kts
Gust
kts
29/11:30pm 19.0 17.7 13.8 72 3.0 SE 13 17 7 9 1019.0 - 0.0
29/11:00pm 19.1 17.9 14.1 73 2.9 SE 13 15 7 8 1019.2 - 0.0
29/10:30pm 19.5 18.4 14.3 72 3.0 SE 13 17 7 9 1019.3 - 0.0
29/10:00pm 20.0 19.2 15.1 73 2.9 ESE 13 17 7 9 1019.2 - 0.0
29/09:30pm 20.8 19.2 15.0 69 3.4 E 17 26 9 14 1019.3 - 0.0
29/09:00pm 20.7 20.0 15.3 71 3.2 E 13 19 7 10 1019.3 1019.3 0.0
29/08:30pm 20.9 20.1 15.1 69 3.4 E 13 17 7 9 1019.1 - 0.0
29/08:00pm 20.9 20.2 15.3 70 3.3 E 13 17 7 9 1018.8 - 0.0
29/07:30pm 21.2 19.9 15.7 71 3.3 E 17 24 9 13 1018.5 - 0.0
29/07:00pm 21.2 18.9 15.7 71 3.3 E 22 33 12 18 1018.1 - 0.0
29/06:30pm 21.3 18.7 16.0 72 3.2 E 24 32 13 17 1017.7 - 0.0
29/06:00pm 21.7 18.1 15.3 67 3.8 ENE 28 35 15 19 1017.2 1017.2 0.0
29/05:30pm 22.4 18.4 15.2 63 4.3 ENE 30 35 16 19 1016.9 - 0.0
29/05:00pm 22.9 18.7 14.6 59 4.9 ENE 30 37 16 20 1016.8 - 0.0
29/04:30pm 23.6 19.1 14.9 58 5.2 ENE 32 37 17 20 1016.6 - 0.0
29/04:00pm 24.4 20.3 15.0 55 5.6 ENE 30 37 16 20 1016.6 - 0.0
29/03:30pm 24.4 19.5 13.6 51 6.3 ENE 32 37 17 20 1016.5 - 0.0
29/03:00pm 24.7 20.6 13.8 50 6.4 ENE 28 33 15 18 1016.6 1016.6 0.0
29/02:30pm 24.7 20.5 13.6 50 6.5 ENE 28 33 15 18 1016.7 - 0.0
29/02:00pm 25.4 20.3 13.0 46 7.2 ENE 32 37 17 20 1017.0 - 0.0
29/01:30pm 25.6 20.3 13.1 46 7.3 ENE 33 39 18 21 1017.5 - 0.0
29/01:00pm 25.7 20.8 13.6 47 7.1 ENE 32 37 17 20 1017.9 - 0.0
29/12:30pm 25.6 22.9 13.5 47 7.1 E 20 32 11 17 1018.4 - 0.0
29/12:00pm 25.5 21.6 12.0 43 7.7 E 24 33 13 18 1019.0 1019.0 0.0
29/11:30am 24.7 21.1 13.0 48 6.8 E 24 33 13 18 1019.7 - 0.0
29/11:00am 24.6 21.7 13.0 48 6.7 ESE 20 32 11 17 1019.9 - 0.0
29/10:30am 23.8 22.1 12.4 48 6.5 SE 13 28 7 15 1020.1 - 0.0
29/10:00am 22.7 20.9 13.4 55 5.4 SE 15 20 8 11 1020.5 - 0.0
29/09:30am 22.2 20.0 12.1 52 5.7 SE 15 24 8 13 1020.5 - 0.0
29/09:00am 21.0 19.6 13.5 62 4.3 SSE 13 17 7 9 1020.5 1020.5 0.0
29/08:30am 19.7 20.7 13.2 66 3.7 CALM 0 2 0 1 1020.4 - 0.0
29/08:00am 17.6 18.6 13.1 75 2.5 CALM 0 0 0 0 1020.1 - 0.0
29/07:30am 15.3 16.3 13.1 87 1.2 CALM 0 0 0 0 1019.9 - 0.0
29/07:00am 13.1 13.7 11.8 92 0.7 CALM 0 0 0 0 1019.6 - 0.0
29/06:30am 11.9 12.2 10.9 94 0.5 CALM 0 0 0 0 1019.3 - 0.0
29/06:00am 11.9 11.1 10.9 94 0.5 WNW 6 9 3 5 1019.0 1019.0 0.0
29/05:30am 11.9 12.3 11.1 95 0.4 CALM 0 0 0 0 1018.8 - 0.0
29/05:00am 12.0 12.3 11.0 94 0.5 CALM 0 0 0 0 1018.5 - 0.0
29/04:30am 12.1 12.5 11.1 94 0.5 CALM 0 0 0 0 1018.4 - 0.0
29/04:00am 12.7 13.3 11.8 94 0.5 CALM 0 0 0 0 1018.5 - 0.0
29/03:30am 12.6 12.3 11.5 93 0.6 NW 4 7 2 4 1018.6 - 0.0
29/03:00am 12.7 11.8 11.4 92 0.7 NW 7 7 4 4 1018.5 1018.5 0.0
29/02:30am 13.1 13.7 11.8 92 0.7 CALM 0 6 0 3 1018.6 - 0.0
29/02:00am 13.9 13.9 12.4 91 0.8 WSW 4 9 2 5 1018.7 - 0.0
29/01:30am 13.5 14.0 11.6 88 1.0 CALM 0 0 0 0 1018.8 - 0.0
29/01:00am 14.2 14.5 12.2 88 1.1 WSW 2 6 1 3 1018.8 - 0.0
29/12:30am 14.0 13.3 12.1 88 1.0 WSW 7 9 4 5 1018.8 - 0.0
29/12:00am 14.2 13.7 12.7 91 0.8 WNW 7 9 4 5 1019.1 1019.1 0.0
 
Date/Time
EST
Temp
°C
App
Temp
°C
Dew
Point
Rel
Hum
%
Delta-T
°C
Wind Press
QNH
hPa
Press
MSL
hPa
Rain
since 9 am
mm
Dir
 
Spd
km/h
Gust
km/h
Spd
kts
Gust
kts
28/11:30pm 14.7 14.8 12.7 88 1.1 S 4 7 2 4 1019.1 - 0.0
28/11:00pm 15.9 15.1 12.8 82 1.7 S 9 11 5 6 1019.3 - 0.0
28/10:30pm 15.4 14.6 12.9 85 1.4 SSE 9 11 5 6 1019.1 - 0.0
28/10:00pm 17.2 16.2 12.3 73 2.7 SSE 9 11 5 6 1019.0 - 0.0
28/09:30pm 17.0 16.1 12.5 75 2.5 SSE 9 9 5 5 1018.9 - 0.0
28/09:00pm 17.4 16.4 12.3 72 2.8 SSE 9 11 5 6 1018.9 1018.9 0.0
28/08:30pm 18.4 18.7 12.1 66 3.5 E 2 6 1 3 1018.9 - 0.0
28/08:00pm 18.6 18.1 12.7 68 3.3 E 7 9 4 5 1018.6 - 0.0
28/07:30pm 18.7 18.2 12.6 67 3.4 ENE 7 9 4 5 1018.1 - 0.0
28/07:00pm 18.8 17.4 12.1 65 3.7 NE 11 13 6 7 1017.8 - 0.0
28/06:30pm 19.4 17.6 12.2 63 4.0 ENE 13 15 7 8 1017.3 - 0.0
28/06:00pm 20.7 17.9 11.5 55 5.1 ENE 17 19 9 10 1016.9 1016.9 0.0
28/05:30pm 21.7 18.7 11.9 53 5.5 ENE 19 24 10 13 1016.6 - 0.0
28/05:00pm 22.4 19.1 11.5 50 6.1 ENE 20 26 11 14 1016.4 - 0.0
28/04:30pm 22.9 18.6 10.8 46 6.7 ENE 24 30 13 16 1016.1 - 0.0
28/04:00pm 22.9 18.7 11.2 47 6.5 ENE 24 32 13 17 1015.8 - 0.0
28/03:30pm 23.3 18.3 11.1 46 6.8 NE 28 33 15 18 1015.8 - 0.0
28/03:00pm 23.5 17.9 10.0 42 7.4 ENE 30 39 16 21 1015.9 1015.9 0.0
28/02:30pm 23.2 17.3 10.3 44 7.1 ENE 32 39 17 21 1016.2 - 0.0

Other Formats:

Comma delimited format used in spreadsheet applications
http://www.bom.gov.au/fwo/IDQ60801/IDQ60801.94294.axf

JavaScript Object Notation format (JSON) in row-major order
http://www.bom.gov.au/fwo/IDQ60801/IDQ60801.94294.json